x

West Dixon Entrance (46205) Wave Buoy

6:00pm - Sun 24th May 2015 All times are PDT. -7 hours from GMT.

  • Sig Wave height 3.6ft
  • Peak Period 10s
  • Wind
    4mph, 7mph gusts
  • Sea Temp 51°f
  • Air Temp 51°f
  • Sea Pressure 1022.6mb
  • West Dixon Entrance
  • West Dixon Entrance

More Historic Weather Station data

Upgrade to MSW Pro to gain access to the past 30 days of data for over 8000 Wavebouys and Weather Stations around the globe.

Join Pro

Comparision Forecast

View Surf forecast
   
Sun 05/24 6:00pm 3.5ft 10s 4 7 mph 1022.6mb 51f 51f
5:00pm 4ft 10s 4 7 mph 1023.2mb 51f 51f
4:00pm 3.5ft 11s 7 9 mph 1023.7mb 51f 51f
3:00pm 3.5ft 11s 7 9 mph 1024.1mb 51f 51f
2:00pm 4ft 10s 7 9 mph 1024.3mb 51f 51f
1:00pm 4.5ft 10s 7 9 mph 1024.5mb 51f 51f
12:00pm 4ft 10s 4 7 mph 1024.6mb 51f 51f
11:00am 4.5ft 10s  -  2 mph 1024.9mb 50f 51f
10:00am 4ft 10s 2 4 mph 1025mb 50f 50f
9:00am 4.5ft 10s 4
mph
1024.9mb 50f 49f
8:00am 4ft 11s 7 9 mph 1025.1mb 50f 49f
7:00am 4.5ft 10s 9 11 mph 1025.1mb 50f 49f
6:00am 4.5ft 11s 11 13 mph 1025.1mb 50f 49f
5:00am 4.5ft 11s 13 16 mph 1025.2mb 50f 50f
4:00am 4.5ft 12s 11 16 mph 1025.3mb 50f 49f
3:00am 5ft 11s 13 16 mph 1025.5mb 50f 49f
2:00am 5ft 12s 13 16 mph 1025.6mb 50f 49f
1:00am 4.5ft 12s 13 18 mph 1025.8mb 50f 49f
12:00am 5ft 11s 13 18 mph 1025.7mb 50f 49f
Sat 05/23 11:00pm 5ft 11s 13 20 mph 1025.7mb 50f 49f
10:00pm 5ft 6s 13 16 mph 1025.4mb 49f 49f
9:00pm 5ft 7s 13 18 mph 1025mb 50f 49f
8:00pm 5ft 11s 13 18 mph 1025mb 50f 49f
7:00pm 5ft 7s 13 16 mph 1025.1mb 50f 49f
6:00pm 5ft 11s 13 18 mph 1025.1mb 50f 49f
5:00pm 5ft 7s 13 16 mph 1025.3mb 50f 49f
4:00pm 5.5ft 7s 13 16 mph 1025.5mb 50f 48f
3:00pm 5.5ft 7s 13 18 mph 1025.2mb 49f 49f
2:00pm 5.5ft 7s 13 16 mph 1025mb 49f 48f
1:00pm 6ft 7s 13 18 mph 1024.6mb 49f 48f
12:00pm 6ft 7s 16 18 mph 1024mb 49f 49f
11:00am 6.5ft 11s 13 18 mph 1023.3mb 49f 49f
10:00am 6.5ft 7s 13 18 mph 1023.3mb 49f 48f
9:00am 6.5ft 7s 16 18 mph 1023mb 49f 48f
8:00am 7ft 7s 16 18 mph 1022.6mb 49f 48f
7:00am 7ft 7s 18 20 mph 1022.1mb 49f 48f
6:00am 7ft 7s 16 20 mph 1021.8mb 49f 48f
5:00am 7.5ft 8s 18 20 mph 1021.8mb 49f 48f
4:00am 7ft 8s 16 20 mph 1021.6mb 49f 48f
3:00am 6.5ft 8s 18 20 mph 1021.1mb 49f 48f
2:00am 7ft 7s 18 22 mph 1021.1mb 49f 49f
1:00am 7ft 8s 18 22 mph 1020.9mb 49f 49f
12:00am 7.5ft 12s 18 22 mph 1020.8mb 50f 49f
Fri 05/22 11:00pm 7ft 7s 18 22 mph 1020.7mb 49f 49f
10:00pm 7.5ft 12s 20 25 mph 1020.3mb 49f 49f
9:00pm 8ft 7s 18 22 mph 1020.2mb 50f 49f
8:00pm 7.5ft 7s 18 22 mph 1020mb 50f 49f
7:00pm 7ft 6s 20 22 mph 1019.8mb 50f 49f
6:00pm 7.5ft 8s 18 22 mph 1020.1mb 50f 49f
5:00pm 8ft 8s 18 22 mph 1020.3mb 50f 49f
4:00pm 8.5ft 7s 20 25 mph 1020.4mb 49f 49f
3:00pm 8ft 8s 20 25 mph 1020.3mb 49f 49f
2:00pm 8.5ft 8s 20 25 mph 1020.3mb 49f 49f
1:00pm 8.5ft 8s 22 27 mph 1020.2mb 49f 49f
12:00pm 9ft 8s 20 22 mph 1020.3mb 49f 49f
11:00am 9ft 8s 20 25 mph 1020mb 50f 49f
10:00am 9.5ft 8s 22 27 mph 1019.9mb 50f 49f
8:00am 9ft 8s 22 27 mph 1019.6mb 50f 49f
7:00am 9ft 8s 20 25 mph 1019.3mb 50f 49f
6:00am 9ft 8s 22 27 mph 1019.3mb 50f 49f
5:00am  -   -  22
mph
- - 49f
4:00am 9ft 8s 22 27 mph 1019.3mb 50f 49f
3:00am 8.5ft 8s 22 27 mph 1019.2mb 50f 49f
2:00am 9ft 8s 20 25 mph 1019.3mb 50f 49f
1:00am 9.5ft 8s 22 27 mph 1019.3mb 50f 48f
12:00am 8ft 8s 22 27 mph 1019.4mb 50f 49f
Thu 05/21 11:00pm 8ft 8s 22 27 mph 1019.4mb 50f 49f
10:00pm 8ft 8s 22 29 mph 1019.2mb 50f 49f
9:00pm 8ft 8s 22 29 mph 1018.8mb 50f 49f
8:00pm 8ft 7s 22 27 mph 1018.8mb 50f 49f
6:00pm 8ft 7s 22 27 mph 1018.8mb 50f 49f
5:00pm 7.5ft 7s 20 25 mph 1019mb 50f 50f
4:00pm 8ft 7s 20 25 mph 1019.2mb 50f 49f
3:00pm 8ft 8s 20 25 mph 1019.3mb 50f 50f
2:00pm 8ft 8s 20 25 mph 1019.5mb 50f 49f
1:00pm 8ft 8s 20 25 mph 1019.4mb 50f 49f
12:00pm 7.5ft 8s 20 25 mph 1019.5mb 50f 49f
11:00am 6.5ft 8s 20 25 mph 1019.7mb 50f 49f
10:00am 7ft 8s 20 25 mph 1019.8mb 50f 49f
9:00am 7.5ft 8s 20 25 mph 1019.8mb 51f 48f
8:00am 8ft 8s 20 25 mph 1019.6mb 51f 48f
7:00am 8ft 8s 20 25 mph 1019.5mb 51f 48f
6:00am 7ft 7s 18 22 mph 1019.3mb 51f 48f
5:00am 7.5ft 7s 18 22 mph 1019.6mb 51f 48f
4:00am 7ft 7s 20 22 mph 1019.8mb 51f 48f
3:00am 7ft 7s 18 22 mph 1019.7mb 51f 48f